createdAt,value
2018-10-03T00:00:49.000Z,28.1
2018-10-03T00:02:49.000Z,28.1
2018-10-03T00:04:49.000Z,28
2018-10-03T00:06:49.000Z,27.9
2018-10-03T00:08:48.000Z,27.8
2018-10-03T00:10:48.000Z,27.8
2018-10-03T00:12:48.000Z,27.8
2018-10-03T00:13:48.000Z,27.8
2018-10-03T00:15:48.000Z,27.8
2018-10-03T00:16:48.000Z,27.9
2018-10-03T00:18:48.000Z,27.9
2018-10-03T00:19:48.000Z,27.9
2018-10-03T00:21:48.000Z,28
2018-10-03T00:22:48.000Z,28
2018-10-03T00:24:48.000Z,28
2018-10-03T00:25:48.000Z,28
2018-10-03T00:27:48.000Z,28
2018-10-03T00:29:48.000Z,28
2018-10-03T00:31:48.000Z,27.9
2018-10-03T00:32:48.000Z,27.9
2018-10-03T00:33:48.000Z,27.9
2018-10-03T00:35:33.000Z,28
2018-10-03T00:36:48.000Z,28
2018-10-03T00:38:48.000Z,28
2018-10-03T00:39:48.000Z,28
2018-10-03T00:41:33.000Z,28
2018-10-03T00:42:48.000Z,28
2018-10-03T00:44:48.000Z,27.9
2018-10-03T00:46:48.000Z,27.8
2018-10-03T00:47:48.000Z,27.8
2018-10-03T00:48:48.000Z,27.9
2018-10-03T00:50:48.000Z,28
2018-10-03T00:51:48.000Z,28
2018-10-03T00:53:48.000Z,28
2018-10-03T00:55:48.000Z,28
2018-10-03T00:56:48.000Z,28
2018-10-03T00:57:48.000Z,28
2018-10-03T00:59:48.000Z,28.1
2018-10-03T01:01:48.000Z,28
2018-10-03T01:03:48.000Z,27.9
2018-10-03T01:05:48.000Z,27.9
2018-10-03T01:06:48.000Z,27.9
2018-10-03T01:07:48.000Z,27.9
2018-10-03T01:08:48.000Z,27.9
2018-10-03T01:10:48.000Z,28
2018-10-03T01:12:48.000Z,27.9
2018-10-03T01:13:48.000Z,27.9
2018-10-03T01:15:48.000Z,27.9
2018-10-03T01:16:48.000Z,27.9
2018-10-03T01:18:48.000Z,27.9
2018-10-03T01:20:48.000Z,27.9
2018-10-03T01:21:48.000Z,27.9
2018-10-03T01:23:48.000Z,28
2018-10-03T01:25:48.000Z,27.9
2018-10-03T01:26:48.000Z,27.9
2018-10-03T01:27:48.000Z,28
2018-10-03T01:29:48.000Z,28
2018-10-03T01:31:48.000Z,27.9
2018-10-03T01:33:48.000Z,27.8
2018-10-03T01:35:48.000Z,27.8
2018-10-03T01:37:48.000Z,27.8
2018-10-03T01:38:48.000Z,27.8
2018-10-03T01:39:48.000Z,27.8
2018-10-03T01:41:48.000Z,27.9
2018-10-03T01:43:48.000Z,27.9
2018-10-03T01:44:48.000Z,27.9
2018-10-03T01:46:48.000Z,28
2018-10-03T01:47:48.000Z,28
2018-10-03T01:49:48.000Z,28
2018-10-03T01:50:48.000Z,28
2018-10-03T01:51:48.000Z,28
2018-10-03T01:53:48.000Z,28.1
2018-10-03T01:54:48.000Z,28.1
2018-10-03T01:56:48.000Z,28.1
2018-10-03T01:58:48.000Z,28
2018-10-03T02:00:48.000Z,28
2018-10-03T02:01:48.000Z,28
2018-10-03T02:02:48.000Z,28
2018-10-03T02:04:48.000Z,28
2018-10-03T02:06:48.000Z,27.9
2018-10-03T02:08:48.000Z,27.9
2018-10-03T02:09:48.000Z,27.9
2018-10-03T02:11:48.000Z,27.9
2018-10-03T02:12:48.000Z,27.9
2018-10-03T02:14:49.000Z,28
2018-10-03T02:16:49.000Z,27.9
2018-10-03T02:17:49.000Z,27.9
2018-10-03T02:19:49.000Z,28
2018-10-03T02:21:49.000Z,28
2018-10-03T02:22:49.000Z,27.9
2018-10-03T02:24:49.000Z,28
2018-10-03T02:25:49.000Z,28
2018-10-03T02:26:49.000Z,28
2018-10-03T02:28:49.000Z,27.9
2018-10-03T02:30:49.000Z,27.8
2018-10-03T02:31:49.000Z,27.8
2018-10-03T02:32:49.000Z,27.8
2018-10-03T02:34:34.000Z,27.9
2018-10-03T02:35:49.000Z,27.9
2018-10-03T02:36:49.000Z,27.9
2018-10-03T02:38:49.000Z,28
2018-10-03T02:39:49.000Z,28
2018-10-03T02:40:49.000Z,28
2018-10-03T02:42:49.000Z,28.1
2018-10-03T02:44:49.000Z,28
2018-10-03T02:46:49.000Z,28
2018-10-03T02:47:49.000Z,28
2018-10-03T02:48:49.000Z,28
2018-10-03T02:50:49.000Z,28
2018-10-03T02:52:49.000Z,28
2018-10-03T02:54:49.000Z,27.9
2018-10-03T02:56:49.000Z,27.9
2018-10-03T02:57:49.000Z,27.9
2018-10-03T02:59:34.000Z,27.9
2018-10-03T03:00:49.000Z,27.9
2018-10-03T03:01:49.000Z,27.9
2018-10-03T03:03:49.000Z,27.9
2018-10-03T03:04:49.000Z,27.9
2018-10-03T03:05:49.000Z,27.9
2018-10-03T03:07:34.000Z,28
2018-10-03T03:08:49.000Z,28
2018-10-03T03:09:49.000Z,28
2018-10-03T03:10:49.000Z,28
2018-10-03T03:11:49.000Z,28
2018-10-03T03:13:49.000Z,28
2018-10-03T03:15:49.000Z,27.8
2018-10-03T03:17:49.000Z,27.8
2018-10-03T03:18:49.000Z,27.8
2018-10-03T03:19:49.000Z,27.8
2018-10-03T03:20:49.000Z,27.8
2018-10-03T03:22:49.000Z,27.9
2018-10-03T03:24:49.000Z,27.8
2018-10-03T03:25:49.000Z,27.8
2018-10-03T03:26:49.000Z,27.8
2018-10-03T03:28:49.000Z,27.8
2018-10-03T03:29:49.000Z,27.8
2018-10-03T03:30:49.000Z,27.9
2018-10-03T03:31:49.000Z,28
2018-10-03T03:33:49.000Z,28
2018-10-03T03:34:49.000Z,28
2018-10-03T03:35:49.000Z,28
2018-10-03T03:37:49.000Z,28
2018-10-03T03:38:49.000Z,28
2018-10-03T03:39:49.000Z,28.1
2018-10-03T03:40:49.000Z,28.1
2018-10-03T03:42:34.000Z,28.1
2018-10-03T03:43:49.000Z,28.1
2018-10-03T03:45:34.000Z,28
2018-10-03T03:46:49.000Z,28
2018-10-03T03:47:49.000Z,28
2018-10-03T03:49:49.000Z,28
2018-10-03T03:50:49.000Z,28
2018-10-03T03:52:49.000Z,27.9
2018-10-03T03:54:49.000Z,27.9
2018-10-03T03:55:49.000Z,27.9
2018-10-03T03:57:49.000Z,27.9
2018-10-03T03:58:49.000Z,27.9
2018-10-03T04:00:49.000Z,27.9
2018-10-03T04:01:49.000Z,27.9
2018-10-03T04:03:49.000Z,28
2018-10-03T04:04:49.000Z,28
2018-10-03T04:06:49.000Z,28
2018-10-03T04:07:49.000Z,28
2018-10-03T04:09:49.000Z,28
2018-10-03T04:10:49.000Z,28
2018-10-03T04:11:49.000Z,28
2018-10-03T04:13:49.000Z,28.1
2018-10-03T04:15:49.000Z,28
2018-10-03T04:17:49.000Z,27.9
2018-10-03T04:18:49.000Z,27.9
2018-10-03T04:19:49.000Z,27.9
2018-10-03T04:21:49.000Z,27.9
2018-10-03T04:23:49.000Z,27.9
2018-10-03T04:25:49.000Z,27.8
2018-10-03T04:27:49.000Z,27.8
2018-10-03T04:29:49.000Z,27.8
2018-10-03T04:30:49.000Z,27.8
2018-10-03T04:32:49.000Z,27.8
2018-10-03T04:34:49.000Z,27.8
2018-10-03T04:36:49.000Z,27.8
2018-10-03T04:37:49.000Z,27.8
2018-10-03T04:39:33.000Z,27.9
2018-10-03T04:40:49.000Z,27.8
2018-10-03T04:41:49.000Z,27.8
2018-10-03T04:43:49.000Z,27.9
2018-10-03T04:45:49.000Z,27.9
2018-10-03T04:46:49.000Z,27.9
2018-10-03T04:48:49.000Z,27.9
2018-10-03T04:50:49.000Z,27.9
2018-10-03T04:52:49.000Z,27.9
2018-10-03T04:53:49.000Z,27.9
2018-10-03T04:54:49.000Z,27.9
2018-10-03T04:55:49.000Z,27.9
2018-10-03T04:57:49.000Z,27.9
2018-10-03T04:59:49.000Z,27.9
2018-10-03T05:00:49.000Z,27.9
2018-10-03T05:01:49.000Z,28
2018-10-03T05:02:49.000Z,28
2018-10-03T05:03:49.000Z,28
2018-10-03T05:04:49.000Z,28
2018-10-03T05:06:49.000Z,28
2018-10-03T05:07:49.000Z,28.1
2018-10-03T05:09:49.000Z,28
2018-10-03T05:10:49.000Z,28
2018-10-03T05:12:49.000Z,28
2018-10-03T05:14:49.000Z,27.9
2018-10-03T05:16:49.000Z,27.8
2018-10-03T05:18:49.000Z,27.8
2018-10-03T05:20:49.000Z,27.7
2018-10-03T05:22:49.000Z,27.7
2018-10-03T05:24:49.000Z,27.7
2018-10-03T05:25:49.000Z,27.7
2018-10-03T05:26:49.000Z,27.8
2018-10-03T05:27:49.000Z,27.8
2018-10-03T05:29:49.000Z,27.9
2018-10-03T05:31:49.000Z,27.9
2018-10-03T05:32:49.000Z,27.9
2018-10-03T05:34:49.000Z,27.9
2018-10-03T05:35:49.000Z,27.9
2018-10-03T05:36:49.000Z,28
2018-10-03T05:38:49.000Z,28
2018-10-03T05:39:49.000Z,28
2018-10-03T05:41:49.000Z,28
2018-10-03T05:42:49.000Z,28
2018-10-03T05:44:49.000Z,27.9
2018-10-03T05:45:49.000Z,27.9
2018-10-03T05:47:49.000Z,27.9
2018-10-03T05:48:49.000Z,27.9
2018-10-03T05:49:49.000Z,28
2018-10-03T05:51:49.000Z,28
2018-10-03T05:53:49.000Z,27.9
2018-10-03T05:54:49.000Z,27.9
2018-10-03T05:55:49.000Z,27.9
2018-10-03T05:57:49.000Z,28
2018-10-03T05:59:49.000Z,28
2018-10-03T06:00:49.000Z,28
2018-10-03T06:01:49.000Z,28
2018-10-03T06:02:49.000Z,28.1
2018-10-03T06:03:49.000Z,28.2
2018-10-03T06:05:49.000Z,28.2
2018-10-03T06:06:49.000Z,28.2
2018-10-03T06:07:49.000Z,28.2
2018-10-03T06:09:49.000Z,28.1
2018-10-03T06:10:49.000Z,28.1
2018-10-03T06:12:49.000Z,28.1
2018-10-03T06:14:49.000Z,28.1
2018-10-03T06:16:49.000Z,28
2018-10-03T06:18:49.000Z,27.9
2018-10-03T06:20:49.000Z,27.9
2018-10-03T06:21:49.000Z,27.9
2018-10-03T06:23:49.000Z,27.9
2018-10-03T06:24:49.000Z,27.9
2018-10-03T06:26:49.000Z,28
2018-10-03T06:28:48.000Z,28
2018-10-03T06:30:48.000Z,27.9
2018-10-03T06:31:48.000Z,28
2018-10-03T06:33:48.000Z,28
2018-10-03T06:34:48.000Z,28
2018-10-03T06:36:48.000Z,28
2018-10-03T06:37:48.000Z,28.1
2018-10-03T06:39:48.000Z,28.1
2018-10-03T06:41:48.000Z,28
2018-10-03T06:43:48.000Z,28
2018-10-03T06:44:48.000Z,28
2018-10-03T06:45:48.000Z,28
2018-10-03T06:46:48.000Z,28.1
2018-10-03T06:48:48.000Z,28.1
2018-10-03T06:49:48.000Z,28.2
2018-10-03T06:51:48.000Z,28.3
2018-10-03T06:52:48.000Z,28.3
2018-10-03T06:54:48.000Z,28.3
2018-10-03T06:55:48.000Z,28.3
2018-10-03T06:57:48.000Z,28.3
2018-10-03T06:58:48.000Z,28.3
2018-10-03T07:00:48.000Z,28.4
2018-10-03T07:01:48.000Z,28.4
2018-10-03T07:02:48.000Z,28.5
2018-10-03T07:04:48.000Z,28.5
2018-10-03T07:05:48.000Z,28.5
2018-10-03T07:08:48.000Z,28.6
2018-10-03T07:10:33.000Z,28.5
2018-10-03T07:11:48.000Z,28.5
2018-10-03T07:12:48.000Z,28.5
2018-10-03T07:14:48.000Z,28.4
2018-10-03T07:16:48.000Z,28.4
2018-10-03T07:17:48.000Z,28.4
2018-10-03T07:18:48.000Z,28.4
2018-10-03T07:19:48.000Z,28.5
2018-10-03T07:21:48.000Z,28.5
2018-10-03T07:23:48.000Z,28.5
2018-10-03T07:25:48.000Z,28.5
2018-10-03T07:27:48.000Z,28.4
2018-10-03T07:28:48.000Z,28.3
2018-10-03T07:29:48.000Z,28.4
2018-10-03T07:30:48.000Z,28.5
2018-10-03T07:32:48.000Z,28.6
2018-10-03T07:34:48.000Z,28.6
2018-10-03T07:35:48.000Z,28.6
2018-10-03T07:37:48.000Z,28.6
2018-10-03T07:39:48.000Z,28.6
2018-10-03T07:40:48.000Z,28.7
2018-10-03T07:41:48.000Z,28.7
2018-10-03T07:42:48.000Z,28.8
2018-10-03T07:44:48.000Z,28.9
2018-10-03T07:45:48.000Z,28.9
2018-10-03T07:47:48.000Z,29
2018-10-03T07:49:48.000Z,28.9
2018-10-03T07:50:48.000Z,28.9
2018-10-03T07:51:48.000Z,28.9
2018-10-03T07:53:48.000Z,29
2018-10-03T07:54:48.000Z,29
2018-10-03T07:56:48.000Z,29
2018-10-03T07:58:48.000Z,29
2018-10-03T07:59:48.000Z,29.1
2018-10-03T08:00:48.000Z,29.2
2018-10-03T08:02:48.000Z,29.4
2018-10-03T08:04:48.000Z,29.4
2018-10-03T08:06:48.000Z,29.4
2018-10-03T08:07:48.000Z,29.5
2018-10-03T08:09:48.000Z,29.5
2018-10-03T08:11:48.000Z,29.6
2018-10-03T08:12:48.000Z,29.6
2018-10-03T08:13:48.000Z,29.8
2018-10-03T08:15:48.000Z,29.9
2018-10-03T08:16:48.000Z,29.9
2018-10-03T08:18:48.000Z,30
2018-10-03T08:20:48.000Z,30
2018-10-03T08:22:48.000Z,30
2018-10-03T08:23:48.000Z,30
2018-10-03T08:24:48.000Z,30
2018-10-03T08:26:33.000Z,30.1
2018-10-03T08:27:48.000Z,30.1
2018-10-03T08:28:48.000Z,30.1
2018-10-03T08:30:48.000Z,30.3
2018-10-03T08:31:48.000Z,30.3
2018-10-03T08:32:48.000Z,30.4
2018-10-03T08:34:48.000Z,30.6
2018-10-03T08:35:49.000Z,30.6
2018-10-03T08:37:49.000Z,30.4
2018-10-03T08:38:49.000Z,30.3
2018-10-03T08:39:49.000Z,30.2
2018-10-03T08:41:49.000Z,30
2018-10-03T08:42:49.000Z,29.9
2018-10-03T08:43:49.000Z,29.9
2018-10-03T08:45:33.000Z,29.8
2018-10-03T08:46:49.000Z,29.7
2018-10-03T08:48:49.000Z,29.5
2018-10-03T08:49:49.000Z,29.4
2018-10-03T08:51:49.000Z,29.4
2018-10-03T08:53:33.000Z,29.3
2018-10-03T08:54:49.000Z,29.2
2018-10-03T08:56:49.000Z,29.1
2018-10-03T08:57:49.000Z,29.1
2018-10-03T08:58:49.000Z,29.1
2018-10-03T08:59:49.000Z,29.1
2018-10-03T09:00:49.000Z,29.2
2018-10-03T09:02:49.000Z,29.2
2018-10-03T09:04:49.000Z,29.1
2018-10-03T09:06:49.000Z,29.1
2018-10-03T09:08:33.000Z,29
2018-10-03T09:09:49.000Z,29
2018-10-03T09:10:49.000Z,29
2018-10-03T09:12:49.000Z,29
2018-10-03T09:14:49.000Z,28.9
2018-10-03T09:16:49.000Z,28.8
2018-10-03T09:17:49.000Z,28.8
2018-10-03T09:18:49.000Z,28.8
2018-10-03T09:20:49.000Z,28.8
2018-10-03T09:21:49.000Z,28.8
2018-10-03T09:23:49.000Z,28.8
2018-10-03T09:25:49.000Z,28.8
2018-10-03T09:27:49.000Z,28.7
2018-10-03T09:29:49.000Z,28.6
2018-10-03T09:31:49.000Z,28.6
2018-10-03T09:32:49.000Z,28.6
2018-10-03T09:34:49.000Z,28.6
2018-10-03T09:36:49.000Z,28.6
2018-10-03T09:37:49.000Z,28.6
2018-10-03T09:38:49.000Z,28.6
2018-10-03T09:39:48.000Z,28.6
2018-10-03T09:41:48.000Z,28.6
2018-10-03T09:43:48.000Z,28.6
2018-10-03T09:45:33.000Z,28.5
2018-10-03T09:46:48.000Z,28.5
2018-10-03T09:47:48.000Z,28.5
2018-10-03T09:48:48.000Z,28.6
2018-10-03T09:50:48.000Z,28.6
2018-10-03T09:51:48.000Z,28.7
2018-10-03T09:53:48.000Z,28.7
2018-10-03T09:54:48.000Z,28.6
2018-10-03T09:55:48.000Z,28.7
2018-10-03T09:57:48.000Z,28.7
2018-10-03T09:58:48.000Z,28.7
2018-10-03T10:00:48.000Z,28.7
2018-10-03T10:01:48.000Z,28.7
2018-10-03T10:03:48.000Z,28.6
2018-10-03T10:05:48.000Z,28.6
2018-10-03T10:06:48.000Z,28.6
2018-10-03T10:08:48.000Z,28.6
2018-10-03T10:10:48.000Z,28.5
2018-10-03T10:11:48.000Z,28.5
2018-10-03T10:12:48.000Z,28.5
2018-10-03T10:14:48.000Z,28.6
2018-10-03T10:16:33.000Z,28.6
2018-10-03T10:17:48.000Z,28.5
2018-10-03T10:19:48.000Z,28.5
2018-10-03T10:21:33.000Z,28.2
2018-10-03T10:22:48.000Z,28.4
2018-10-03T10:24:48.000Z,28.4
2018-10-03T10:25:48.000Z,28.4
2018-10-03T10:26:48.000Z,28.4
2018-10-03T10:27:48.000Z,28.5
2018-10-03T10:29:48.000Z,28.6
2018-10-03T10:31:48.000Z,28.6
2018-10-03T10:32:48.000Z,28.6
2018-10-03T10:34:48.000Z,28.6
2018-10-03T10:36:48.000Z,28.5
2018-10-03T10:38:48.000Z,28.5
2018-10-03T10:40:48.000Z,28.4
2018-10-03T10:42:48.000Z,28.3
2018-10-03T10:43:48.000Z,28.3
2018-10-03T10:45:48.000Z,28.3
2018-10-03T10:47:48.000Z,28.3
2018-10-03T10:49:33.000Z,28.3
2018-10-03T10:50:48.000Z,28.2
2018-10-03T10:52:48.000Z,28.2
2018-10-03T10:54:48.000Z,28.3
2018-10-03T10:55:48.000Z,28.3
2018-10-03T10:57:48.000Z,28.3
2018-10-03T10:58:48.000Z,28.4
2018-10-03T10:59:48.000Z,28.5
2018-10-03T11:01:48.000Z,28.5
2018-10-03T11:03:48.000Z,28.4
2018-10-03T11:05:48.000Z,28.4
2018-10-03T11:06:48.000Z,28.4
2018-10-03T11:08:48.000Z,28.4
2018-10-03T11:09:48.000Z,28.5
2018-10-03T11:11:48.000Z,28.5
2018-10-03T11:12:48.000Z,28.5
2018-10-03T11:13:48.000Z,28.5
2018-10-03T11:15:48.000Z,28.5
2018-10-03T11:17:48.000Z,28.5
2018-10-03T11:19:33.000Z,28.5
2018-10-03T11:20:48.000Z,28.5
2018-10-03T11:21:48.000Z,28.5
2018-10-03T11:23:48.000Z,28.5
2018-10-03T11:24:48.000Z,28.5
2018-10-03T11:26:48.000Z,28.5
2018-10-03T11:28:48.000Z,28.5
2018-10-03T11:29:48.000Z,28.4
2018-10-03T11:31:48.000Z,28.4
2018-10-03T11:33:48.000Z,28.4
2018-10-03T11:35:48.000Z,28.3
2018-10-03T11:36:48.000Z,28.3
2018-10-03T11:37:48.000Z,28.3
2018-10-03T11:39:48.000Z,28.4
2018-10-03T11:41:48.000Z,28.4
2018-10-03T11:43:48.000Z,28.4
2018-10-03T11:44:48.000Z,28.4
2018-10-03T11:45:48.000Z,28.5
2018-10-03T11:47:48.000Z,28.4
2018-10-03T11:48:48.000Z,28.4
2018-10-03T11:49:48.000Z,28.5
2018-10-03T11:51:33.000Z,28.6
2018-10-03T11:52:48.000Z,28.5
2018-10-03T11:53:48.000Z,28.5
2018-10-03T11:55:48.000Z,28.6
2018-10-03T11:56:48.000Z,28.6
2018-10-03T11:58:48.000Z,28.6
2018-10-03T11:59:48.000Z,28.6
2018-10-03T12:01:48.000Z,28.6
2018-10-03T12:03:48.000Z,28.6
2018-10-03T12:05:48.000Z,28.6
2018-10-03T12:07:48.000Z,28.5
2018-10-03T12:08:48.000Z,28.5
2018-10-03T12:10:48.000Z,28.5
2018-10-03T12:11:48.000Z,28.5
2018-10-03T12:13:48.000Z,28.5
2018-10-03T12:15:48.000Z,28.5
2018-10-03T12:16:48.000Z,28.5
2018-10-03T12:18:48.000Z,28.5
2018-10-03T12:20:48.000Z,28.5
2018-10-03T12:22:48.000Z,28.4
2018-10-03T12:24:48.000Z,28.3
2018-10-03T12:26:48.000Z,28.3
2018-10-03T12:28:48.000Z,28.2
2018-10-03T12:29:48.000Z,28.2
2018-10-03T12:31:48.000Z,28.3
2018-10-03T12:33:48.000Z,28.3
2018-10-03T12:34:48.000Z,28.3
2018-10-03T12:36:33.000Z,28.4
2018-10-03T12:37:48.000Z,28.4
2018-10-03T12:39:48.000Z,28.4
2018-10-03T12:41:48.000Z,28.3
2018-10-03T12:43:48.000Z,28.3
2018-10-03T12:45:33.000Z,28.3
2018-10-03T12:46:48.000Z,28.3
2018-10-03T12:48:33.000Z,28.3
2018-10-03T12:49:48.000Z,28.3
2018-10-03T12:50:48.000Z,28.3
2018-10-03T12:52:48.000Z,28.4
2018-10-03T12:54:48.000Z,28.4
2018-10-03T12:55:48.000Z,28.4
2018-10-03T12:57:48.000Z,28.5
2018-10-03T12:58:48.000Z,28.5
2018-10-03T12:59:48.000Z,28.5
2018-10-03T13:01:48.000Z,28.5
2018-10-03T13:03:48.000Z,28.5
2018-10-03T13:05:48.000Z,28.5
2018-10-03T13:06:48.000Z,28.5
2018-10-03T13:08:48.000Z,28.4
2018-10-03T13:10:48.000Z,28.3
2018-10-03T13:11:48.000Z,28.3
2018-10-03T13:13:48.000Z,28.4
2018-10-03T13:15:48.000Z,28.4
2018-10-03T13:16:48.000Z,28.4
2018-10-03T13:18:48.000Z,28.4
2018-10-03T13:19:48.000Z,28.4
2018-10-03T13:21:48.000Z,28.4
2018-10-03T13:22:48.000Z,28.4
2018-10-03T13:24:48.000Z,28.5
2018-10-03T13:25:48.000Z,28.5
2018-10-03T13:27:48.000Z,28.5
2018-10-03T13:28:48.000Z,28.5
2018-10-03T13:30:48.000Z,28.6
2018-10-03T13:31:48.000Z,28.6
2018-10-03T13:33:48.000Z,28.6
2018-10-03T13:34:48.000Z,28.5
2018-10-03T13:35:48.000Z,28.6
2018-10-03T13:36:48.000Z,28.6
2018-10-03T13:38:48.000Z,28.7
2018-10-03T13:40:48.000Z,28.6
2018-10-03T13:42:33.000Z,28.5
2018-10-03T13:43:48.000Z,28.4
2018-10-03T13:44:48.000Z,28.4
2018-10-03T13:46:48.000Z,28.4
2018-10-03T13:48:48.000Z,28.4
2018-10-03T13:50:33.000Z,28.4
2018-10-03T13:51:48.000Z,28.4
2018-10-03T13:53:48.000Z,28.5
2018-10-03T13:55:48.000Z,28.5
2018-10-03T13:57:33.000Z,28.5
2018-10-03T13:58:48.000Z,28.5
2018-10-03T13:59:48.000Z,28.5
2018-10-03T14:01:48.000Z,28.6
2018-10-03T14:03:48.000Z,28.5
2018-10-03T14:04:48.000Z,28.5
2018-10-03T14:05:48.000Z,28.6
2018-10-03T14:06:48.000Z,28.6
2018-10-03T14:08:48.000Z,28.6
2018-10-03T14:10:48.000Z,28.6
2018-10-03T14:11:48.000Z,28.6
2018-10-03T14:12:48.000Z,28.6
2018-10-03T14:14:48.000Z,28.6
2018-10-03T14:15:48.000Z,28.6
2018-10-03T14:17:48.000Z,28.6
2018-10-03T14:18:48.000Z,28.6
2018-10-03T14:20:48.000Z,28.6
2018-10-03T14:21:48.000Z,28.6
2018-10-03T14:23:48.000Z,28.5
2018-10-03T14:24:48.000Z,28.5
2018-10-03T14:26:48.000Z,28.5
2018-10-03T14:27:48.000Z,28.5
2018-10-03T14:29:48.000Z,28.5
2018-10-03T14:30:48.000Z,28.5
2018-10-03T14:32:48.000Z,28.6
2018-10-03T14:33:48.000Z,28.6
2018-10-03T14:35:48.000Z,28.6
2018-10-03T14:37:48.000Z,28.5
2018-10-03T14:38:48.000Z,28.5
2018-10-03T14:39:48.000Z,28.6
2018-10-03T14:41:48.000Z,28.6
2018-10-03T14:42:48.000Z,28.6
2018-10-03T14:43:48.000Z,28.6
2018-10-03T14:45:48.000Z,28.6
2018-10-03T14:47:48.000Z,28.6
2018-10-03T14:48:48.000Z,28.6
2018-10-03T14:49:48.000Z,28.6
2018-10-03T14:51:48.000Z,28.7
2018-10-03T14:53:48.000Z,28.5
2018-10-03T14:55:48.000Z,28.5
2018-10-03T14:57:48.000Z,28.4
2018-10-03T14:59:48.000Z,28.3
2018-10-03T15:00:49.000Z,28.3
2018-10-03T15:01:49.000Z,28.3
2018-10-03T15:03:49.000Z,28.4
2018-10-03T15:04:49.000Z,28.5
2018-10-03T15:06:49.000Z,28.5
2018-10-03T15:08:49.000Z,28.4
2018-10-03T15:09:49.000Z,28.4
2018-10-03T15:10:49.000Z,28.5
2018-10-03T15:12:48.000Z,28.5
2018-10-03T15:14:49.000Z,28.4
2018-10-03T15:16:49.000Z,28.4
2018-10-03T15:18:48.000Z,28.3
2018-10-03T15:19:49.000Z,28.3
2018-10-03T15:20:49.000Z,28.4
2018-10-03T15:21:49.000Z,28.5
2018-10-03T15:23:33.000Z,28.6
2018-10-03T15:24:49.000Z,28.5
2018-10-03T15:25:49.000Z,28.5
2018-10-03T15:27:49.000Z,28.6
2018-10-03T15:28:49.000Z,28.6
2018-10-03T15:30:49.000Z,28.6
2018-10-03T15:32:49.000Z,28.5
2018-10-03T15:33:49.000Z,28.5
2018-10-03T15:35:49.000Z,28.5
2018-10-03T15:37:48.000Z,28.4
2018-10-03T15:38:49.000Z,28.4
2018-10-03T15:39:49.000Z,28.4
2018-10-03T15:41:33.000Z,28.5
2018-10-03T15:42:49.000Z,28.5
2018-10-03T15:43:49.000Z,28.5
2018-10-03T15:45:49.000Z,28.5
2018-10-03T15:46:49.000Z,28.5
2018-10-03T15:48:49.000Z,28.5
2018-10-03T15:50:49.000Z,28.5
2018-10-03T15:52:49.000Z,28.4
2018-10-03T15:53:49.000Z,28.4
2018-10-03T15:55:49.000Z,28.5
2018-10-03T15:56:49.000Z,28.5
2018-10-03T15:58:49.000Z,28.5
2018-10-03T16:00:49.000Z,28.5
2018-10-03T16:01:49.000Z,28.6
2018-10-03T16:03:49.000Z,28.6
2018-10-03T16:05:49.000Z,28.5
2018-10-03T16:06:49.000Z,28.5
2018-10-03T16:07:49.000Z,28.6
2018-10-03T16:08:49.000Z,28.6
2018-10-03T16:10:49.000Z,28.6
2018-10-03T16:11:49.000Z,28.6
2018-10-03T16:13:49.000Z,28.6
2018-10-03T16:15:34.000Z,28.6
2018-10-03T16:16:49.000Z,28.5
2018-10-03T16:18:49.000Z,28.5
2018-10-03T16:19:49.000Z,28.5
2018-10-03T16:20:49.000Z,28.6
2018-10-03T16:22:49.000Z,28.6
2018-10-03T16:24:49.000Z,28.6
2018-10-03T16:26:49.000Z,28.5
2018-10-03T16:28:49.000Z,28.5
2018-10-03T16:30:49.000Z,28.5
2018-10-03T16:32:49.000Z,28.4
2018-10-03T16:34:49.000Z,28.4
2018-10-03T16:36:34.000Z,28.4
2018-10-03T16:37:49.000Z,28.4
2018-10-03T16:38:49.000Z,28.4
2018-10-03T16:40:49.000Z,28.5
2018-10-03T16:41:49.000Z,28.5
2018-10-03T16:43:49.000Z,28.5
2018-10-03T16:45:49.000Z,28.4
2018-10-03T16:47:49.000Z,28.4
2018-10-03T16:48:49.000Z,28.4
2018-10-03T16:50:49.000Z,28.5
2018-10-03T16:52:49.000Z,28.4
2018-10-03T16:54:49.000Z,28.4
2018-10-03T16:56:49.000Z,28.3
2018-10-03T16:57:49.000Z,28.3
2018-10-03T16:59:34.000Z,28.4
2018-10-03T17:00:49.000Z,28.3
2018-10-03T17:02:49.000Z,28.3
2018-10-03T17:04:49.000Z,28.2
2018-10-03T17:05:48.000Z,28.2
2018-10-03T17:07:48.000Z,28.3
2018-10-03T17:08:48.000Z,28.3
2018-10-03T17:10:48.000Z,28.3
2018-10-03T17:11:48.000Z,28.3
2018-10-03T17:13:48.000Z,28.3
2018-10-03T17:14:48.000Z,28.3
2018-10-03T17:16:48.000Z,28.4
2018-10-03T17:17:48.000Z,28.4
2018-10-03T17:19:48.000Z,28.4
2018-10-03T17:21:48.000Z,28.4
2018-10-03T17:22:48.000Z,28.4
2018-10-03T17:23:48.000Z,28.4
2018-10-03T17:24:48.000Z,28.4
2018-10-03T17:25:48.000Z,28.5
2018-10-03T17:26:48.000Z,28.5
2018-10-03T17:28:48.000Z,28.5
2018-10-03T17:30:48.000Z,28.4
2018-10-03T17:31:48.000Z,28.4
2018-10-03T17:33:48.000Z,28.4
2018-10-03T17:35:48.000Z,28.4
2018-10-03T17:36:48.000Z,28.4
2018-10-03T17:38:48.000Z,28.4
2018-10-03T17:39:48.000Z,28.4
2018-10-03T17:41:48.000Z,28.4
2018-10-03T17:42:48.000Z,28.4
2018-10-03T17:44:48.000Z,28.4
2018-10-03T17:46:48.000Z,28.4
2018-10-03T17:48:48.000Z,28.3
2018-10-03T17:49:48.000Z,28.2
2018-10-03T17:51:48.000Z,28.2
2018-10-03T17:52:48.000Z,28.2
2018-10-03T17:54:48.000Z,28.2
2018-10-03T17:56:48.000Z,28.2
2018-10-03T17:57:48.000Z,28.2
2018-10-03T17:59:48.000Z,28.2
2018-10-03T18:01:48.000Z,28.2
2018-10-03T18:02:48.000Z,28.1
2018-10-03T18:04:33.000Z,28.2
2018-10-03T18:05:48.000Z,28.2
2018-10-03T18:06:48.000Z,28.2
2018-10-03T18:07:48.000Z,28.2
2018-10-03T18:08:48.000Z,28.3
2018-10-03T18:10:48.000Z,28.3
2018-10-03T18:11:48.000Z,28.3
2018-10-03T18:12:48.000Z,28.4
2018-10-03T18:13:48.000Z,28.4
2018-10-03T18:15:48.000Z,28.5
2018-10-03T18:16:48.000Z,28.5
2018-10-03T18:18:48.000Z,28.5
2018-10-03T18:19:48.000Z,28.5
2018-10-03T18:20:48.000Z,28.5
2018-10-03T18:22:48.000Z,28.5
2018-10-03T18:24:48.000Z,28.4
2018-10-03T18:25:48.000Z,28.4
2018-10-03T18:27:48.000Z,28.4
2018-10-03T18:28:48.000Z,28.4
2018-10-03T18:30:48.000Z,28.4
2018-10-03T18:31:48.000Z,28.3
2018-10-03T18:33:48.000Z,28.3
2018-10-03T18:34:48.000Z,28.3
2018-10-03T18:35:48.000Z,28.3
2018-10-03T18:37:48.000Z,28.3
2018-10-03T18:38:48.000Z,28.3
2018-10-03T18:40:48.000Z,28.3
2018-10-03T18:41:48.000Z,28.3
2018-10-03T18:42:48.000Z,28.4
2018-10-03T18:44:48.000Z,28.4
2018-10-03T18:45:48.000Z,28.4
2018-10-03T18:47:48.000Z,28.4
2018-10-03T18:49:48.000Z,28.4
2018-10-03T18:51:48.000Z,28.3
2018-10-03T18:52:48.000Z,28.2
2018-10-03T18:54:48.000Z,28.2
2018-10-03T18:55:48.000Z,28.2
2018-10-03T18:56:48.000Z,28.2
2018-10-03T18:58:48.000Z,28.3
2018-10-03T18:59:48.000Z,28.3
2018-10-03T19:01:48.000Z,28.3
2018-10-03T19:02:48.000Z,28.3
2018-10-03T19:04:48.000Z,28.3
2018-10-03T19:05:48.000Z,28.3
2018-10-03T19:06:48.000Z,28.4
2018-10-03T19:08:48.000Z,28.4
2018-10-03T19:10:48.000Z,28.3
2018-10-03T19:12:49.000Z,28.2
2018-10-03T19:14:49.000Z,28.2
2018-10-03T19:15:49.000Z,28.2
2018-10-03T19:17:49.000Z,28.1
2018-10-03T19:19:49.000Z,28.1
2018-10-03T19:20:49.000Z,28
2018-10-03T19:21:49.000Z,28.1
2018-10-03T19:23:49.000Z,28.2
2018-10-03T19:25:49.000Z,28.2
2018-10-03T19:26:49.000Z,28.2
2018-10-03T19:28:49.000Z,28.2
2018-10-03T19:30:49.000Z,28.2
2018-10-03T19:32:49.000Z,28.1
2018-10-03T19:33:49.000Z,28.1
2018-10-03T19:34:49.000Z,28.1
2018-10-03T19:35:49.000Z,28.1
2018-10-03T19:37:49.000Z,28.2
2018-10-03T19:38:49.000Z,28.2
2018-10-03T19:40:49.000Z,28.2
2018-10-03T19:41:49.000Z,28.3
2018-10-03T19:43:49.000Z,28.2
2018-10-03T19:45:49.000Z,28.2
2018-10-03T19:47:49.000Z,28.1
2018-10-03T19:48:49.000Z,28.2
2018-10-03T19:50:49.000Z,28.2
2018-10-03T19:52:49.000Z,28.1
2018-10-03T19:54:49.000Z,28
2018-10-03T19:55:49.000Z,28
2018-10-03T19:57:49.000Z,28.1
2018-10-03T19:59:49.000Z,28
2018-10-03T20:00:49.000Z,28
2018-10-03T20:02:49.000Z,28
2018-10-03T20:03:49.000Z,28
2018-10-03T20:05:34.000Z,28.1
2018-10-03T20:06:49.000Z,28.1
2018-10-03T20:08:34.000Z,28.1
2018-10-03T20:09:49.000Z,28.1
2018-10-03T20:10:49.000Z,28.1
2018-10-03T20:12:49.000Z,28.1
2018-10-03T20:14:49.000Z,28
2018-10-03T20:15:49.000Z,28.1
2018-10-03T20:16:49.000Z,28.1
2018-10-03T20:18:34.000Z,28.2
2018-10-03T20:19:49.000Z,28.2
2018-10-03T20:21:49.000Z,28.2
2018-10-03T20:22:49.000Z,28.2
2018-10-03T20:25:49.000Z,28.3
2018-10-03T20:27:49.000Z,28.3
2018-10-03T20:28:49.000Z,28.2
2018-10-03T20:29:49.000Z,28.3
2018-10-03T20:31:49.000Z,28.3
2018-10-03T20:33:49.000Z,28.2
2018-10-03T20:34:49.000Z,28.2
2018-10-03T20:36:49.000Z,28.2
2018-10-03T20:38:49.000Z,28.2
2018-10-03T20:40:49.000Z,28.1
2018-10-03T20:42:49.000Z,28
2018-10-03T20:43:49.000Z,28
2018-10-03T20:44:49.000Z,28.1
2018-10-03T20:46:49.000Z,28.1
2018-10-03T20:48:34.000Z,28.1